createdAt,value
2019-03-28T00:02:16.747Z,102716.75
2019-03-28T00:07:24.627Z,102716.75
2019-03-28T00:12:31.304Z,102721.31
2019-03-28T00:17:39.055Z,102719.62
2019-03-28T00:22:53.265Z,102719.62
2019-03-28T00:28:01.280Z,102718.23
2019-03-28T00:33:09.048Z,102718.80
2019-03-28T00:38:17.054Z,102713.45
2019-03-28T00:43:25.324Z,102713.45
2019-03-28T00:48:33.416Z,102713.98
2019-03-28T00:53:41.505Z,102711.28
2019-03-28T00:58:50.586Z,102708.37
2019-03-28T01:03:58.617Z,102707.94
2019-03-28T01:09:09.581Z,102711.94
2019-03-28T01:14:17.633Z,102711.94
2019-03-28T01:19:25.587Z,102701.08
2019-03-28T01:24:33.672Z,102716.16
2019-03-28T01:29:41.626Z,102721.70
2019-03-28T01:34:49.679Z,102712.30
2019-03-28T01:39:57.866Z,102712.30
2019-03-28T01:45:06.602Z,102714.94
2019-03-28T01:50:15.429Z,102714.94
2019-03-28T01:55:23.344Z,102715.50
2019-03-28T02:00:31.330Z,102709.81
2019-03-28T02:05:37.851Z,102709.81
2019-03-28T02:10:45.948Z,102710.44
2019-03-28T02:15:52.524Z,102718.63
2019-03-28T02:21:01.271Z,102707.48
2019-03-28T02:26:07.864Z,102707.18
2019-03-28T02:31:16.690Z,102716.03
2019-03-28T02:36:25.266Z,102720.39
2019-03-28T02:41:31.675Z,102726.03
2019-03-28T02:46:39.576Z,102722.50
2019-03-28T02:51:46.288Z,102722.50
2019-03-28T02:56:54.246Z,102726.95
2019-03-28T03:02:00.671Z,102728.64
2019-03-28T03:07:08.598Z,102734.48
2019-03-28T03:12:15.260Z,102734.48
2019-03-28T03:17:23.351Z,102731.11
2019-03-28T03:22:29.943Z,102737.02
2019-03-28T03:27:37.919Z,102725.11
2019-03-28T03:32:45.756Z,102729.03
2019-03-28T03:37:53.640Z,102729.03
2019-03-28T03:43:01.742Z,102734.64
2019-03-28T03:48:09.642Z,102734.64
2019-03-28T03:53:17.642Z,102738.64
2019-03-28T03:58:25.633Z,102738.64
2019-03-28T04:03:33.749Z,102742.56
2019-03-28T04:08:41.714Z,102743.16
2019-03-28T04:13:49.638Z,102743.16
2019-03-28T04:18:57.645Z,102745.88
2019-03-28T04:24:06.239Z,102753.30
2019-03-28T04:29:14.067Z,102752.73
2019-03-28T04:34:22.241Z,102760.36
2019-03-28T04:39:30.219Z,102760.03
2019-03-28T04:44:38.249Z,102772.28
2019-03-28T04:49:44.648Z,102769.58
2019-03-28T04:54:52.565Z,102778.81
2019-03-28T05:00:00.807Z,102770.86
2019-03-28T05:05:07.640Z,102770.86
2019-03-28T05:10:15.768Z,102783.64
2019-03-28T05:15:22.289Z,102775.81
2019-03-28T05:20:30.067Z,102783.51
2019-03-28T05:25:36.626Z,102800.45
2019-03-28T05:30:44.930Z,102804.58
2019-03-28T05:35:52.290Z,102804.58
2019-03-28T05:41:00.039Z,102806.63
2019-03-28T05:46:08.259Z,102805.86
2019-03-28T05:51:15.628Z,102809.52
2019-03-28T05:56:23.416Z,102818.52
2019-03-28T06:01:29.953Z,102821.22
2019-03-28T06:06:37.957Z,102830.92
2019-03-28T06:11:47.058Z,102835.55
2019-03-28T06:16:53.583Z,102837.86
2019-03-28T06:22:01.586Z,102846.18
2019-03-28T06:27:09.579Z,102854.88
2019-03-28T06:32:17.424Z,102854.88
2019-03-28T06:37:25.262Z,102865.08
2019-03-28T06:42:33.265Z,102864.65
2019-03-28T06:47:41.072Z,102870.83
2019-03-28T06:52:49.052Z,102873.70
2019-03-28T06:57:58.602Z,102874.99
2019-03-28T07:03:06.607Z,102884.18
2019-03-28T07:08:14.678Z,102884.48
2019-03-28T07:13:21.496Z,102884.48
2019-03-28T07:18:29.422Z,102890.63
2019-03-28T07:23:35.823Z,102887.09
2019-03-28T07:28:43.766Z,102889.20
2019-03-28T07:33:50.310Z,102897.86
2019-03-28T07:38:58.258Z,102892.56
2019-03-28T07:44:06.264Z,102899.77
2019-03-28T07:49:14.250Z,102903.85
2019-03-28T07:54:22.245Z,102908.14
2019-03-28T07:59:30.418Z,102904.66
2019-03-28T08:04:38.423Z,102919.20
2019-03-28T08:09:44.970Z,102915.04
2019-03-28T08:14:52.756Z,102921.37
2019-03-28T08:19:59.369Z,102909.61
2019-03-28T08:25:11.372Z,102917.28
2019-03-28T08:30:22.577Z,102920.16
2019-03-28T08:35:29.366Z,102930.19
2019-03-28T08:40:43.873Z,102931.16
2019-03-28T08:45:50.481Z,102936.00
2019-03-28T08:50:58.426Z,102946.14
2019-03-28T08:56:06.571Z,102952.80
2019-03-28T09:01:14.474Z,102952.95
2019-03-28T09:06:21.042Z,102952.95
2019-03-28T09:11:27.662Z,102962.50
2019-03-28T09:16:35.473Z,102954.96
2019-03-28T09:21:43.571Z,102954.96
2019-03-28T09:26:51.539Z,102944.64
2019-03-28T09:31:59.565Z,102946.48
2019-03-28T09:37:07.589Z,102944.77
2019-03-28T09:42:15.580Z,102948.83
2019-03-28T09:47:23.413Z,102938.21
2019-03-28T09:52:31.236Z,102938.21
2019-03-28T09:57:39.071Z,102939.66
2019-03-28T10:02:47.065Z,102939.92
2019-03-28T10:07:54.867Z,102937.09
2019-03-28T10:13:02.645Z,102945.28
2019-03-28T10:18:10.629Z,102941.91
2019-03-28T10:23:18.770Z,102941.91
2019-03-28T10:28:27.569Z,102948.28
2019-03-28T10:38:50.577Z,102954.47
2019-03-28T10:43:58.625Z,102956.13
2019-03-28T10:49:05.321Z,102941.77
2019-03-28T10:54:19.805Z,102941.77
2019-03-28T10:59:24.001Z,102951.38
2019-03-28T11:04:31.527Z,102965.39
2019-03-28T11:09:39.283Z,102965.48
2019-03-28T11:14:46.405Z,102961.69
2019-03-28T11:19:55.994Z,102970.52
2019-03-28T11:25:02.690Z,102980.98
2019-03-28T11:30:11.459Z,102981.26
2019-03-28T11:35:19.427Z,102981.26
2019-03-28T11:40:25.839Z,102993.79
2019-03-28T11:45:33.778Z,102992.52
2019-03-28T11:50:42.068Z,102992.52
2019-03-28T11:55:50.106Z,102991.74
2019-03-28T12:00:58.092Z,102998.46
2019-03-28T12:06:06.319Z,103001.09
2019-03-28T12:11:14.243Z,103003.00
2019-03-28T12:16:22.235Z,103006.80
2019-03-28T12:21:30.645Z,103006.97
2019-03-28T12:26:38.576Z,103005.06
2019-03-28T12:31:46.594Z,103011.98
2019-03-28T12:36:54.464Z,103011.98
2019-03-28T12:42:02.505Z,103009.55
2019-03-28T12:47:10.388Z,103009.58
2019-03-28T12:52:18.578Z,103014.80
2019-03-28T12:57:26.910Z,103013.25
2019-03-28T13:02:36.264Z,103015.92
2019-03-28T13:07:44.076Z,103020.45
2019-03-28T13:12:52.257Z,103023.50
2019-03-28T13:18:00.027Z,103026.07
2019-03-28T13:23:08.067Z,103019.75
2019-03-28T13:28:15.939Z,103021.66
2019-03-28T13:33:24.084Z,103023.63
2019-03-28T13:38:32.335Z,103023.63
2019-03-28T13:43:40.253Z,103028.72
2019-03-28T13:48:48.378Z,103031.09
2019-03-28T13:53:56.272Z,103026.25
2019-03-28T13:59:04.075Z,103018.89
2019-03-28T14:04:12.071Z,103016.37
2019-03-28T14:10:10.543Z,102988.80
2019-03-28T14:15:18.432Z,102995.24
2019-03-28T14:20:26.269Z,103003.23
2019-03-28T14:25:34.092Z,103009.13
2019-03-28T14:30:42.071Z,103010.33
2019-03-28T14:35:50.242Z,103009.66
2019-03-28T14:40:58.472Z,103022.02
2019-03-28T14:46:06.762Z,103025.08
2019-03-28T14:54:44.673Z,103033.42
2019-03-28T14:59:53.587Z,103026.06
2019-03-28T15:05:01.597Z,103011.78
2019-03-28T15:10:10.399Z,103018.33
2019-03-28T15:15:18.268Z,103018.33
2019-03-28T15:20:27.587Z,103007.16
2019-03-28T15:25:35.573Z,102988.89
2019-03-28T15:30:43.479Z,103004.95
2019-03-28T15:35:51.405Z,103004.95
2019-03-28T15:40:59.264Z,103002.13
2019-03-28T15:46:07.255Z,103003.91
2019-03-28T15:51:15.227Z,102998.05
2019-03-28T15:56:23.234Z,103009.34
2019-03-28T16:01:31.028Z,103014.08
2019-03-28T16:06:39.053Z,103024.27
2019-03-28T16:11:47.056Z,103029.65
2019-03-28T16:16:55.407Z,103039.06
2019-03-28T16:22:04.339Z,103034.41
2019-03-28T16:27:12.453Z,103032.89
2019-03-28T16:32:20.259Z,103035.02
2019-03-28T16:37:28.111Z,103037.18
2019-03-28T16:46:34.716Z,103036.64
2019-03-28T16:51:43.548Z,103044.13
2019-03-28T16:56:54.767Z,103048.08
2019-03-28T17:02:02.691Z,103045.34
2019-03-28T17:07:11.055Z,103042.27
2019-03-28T17:12:19.080Z,103054.61
2019-03-28T17:17:27.257Z,103054.61
2019-03-28T17:22:35.828Z,103049.70
2019-03-28T17:27:46.527Z,103049.70
2019-03-28T17:32:55.555Z,103057.14
2019-03-28T17:38:03.574Z,103066.02
2019-03-28T17:43:11.536Z,103068.27
2019-03-28T17:48:19.572Z,103068.27
2019-03-28T17:53:27.565Z,103076.48
2019-03-28T17:58:35.570Z,103082.77
2019-03-28T18:03:43.595Z,103101.00
2019-03-28T18:08:51.586Z,103095.80
2019-03-28T18:13:59.555Z,103096.59
2019-03-28T18:19:07.593Z,103093.52
2019-03-28T18:24:15.809Z,103101.36
2019-03-28T18:29:23.700Z,103101.36
2019-03-28T18:34:31.588Z,103113.97
2019-03-28T18:39:39.567Z,103119.00
2019-03-28T18:44:47.570Z,103116.65
2019-03-28T18:49:55.446Z,103118.67
2019-03-28T18:55:03.703Z,103118.67
2019-03-28T19:00:13.047Z,103116.78
2019-03-28T19:05:21.261Z,103125.32
2019-03-28T19:10:29.265Z,103125.32
2019-03-28T19:15:37.179Z,103137.63
2019-03-28T19:20:45.260Z,103136.54
2019-03-28T19:25:53.526Z,103134.29
2019-03-28T19:31:01.458Z,103142.30
2019-03-28T19:36:09.574Z,103145.97
2019-03-28T19:41:17.586Z,103145.97
2019-03-28T19:46:25.601Z,103154.52
2019-03-28T19:51:34.049Z,103157.23
2019-03-28T19:56:42.260Z,103157.23
2019-03-28T20:01:50.069Z,103157.83
2019-03-28T20:06:58.082Z,103158.62
2019-03-28T20:12:06.059Z,103165.43
2019-03-28T20:17:14.265Z,103161.39
2019-03-28T20:22:23.559Z,103167.38
2019-03-28T20:27:31.441Z,103159.80
2019-03-28T20:32:39.552Z,103159.80
2019-03-28T20:37:47.586Z,103165.13
2019-03-28T20:42:55.595Z,103165.13
2019-03-28T20:48:03.600Z,103169.09
2019-03-28T20:53:12.015Z,103172.33
2019-03-28T20:58:20.138Z,103172.33
2019-03-28T21:03:28.086Z,103169.25
2019-03-28T21:08:36.259Z,103166.54
2019-03-28T21:13:44.084Z,103159.59
2019-03-28T21:18:52.868Z,103160.98
2019-03-28T21:24:01.381Z,103169.02
2019-03-28T21:29:10.256Z,103165.64
2019-03-28T21:34:18.275Z,103160.31
2019-03-28T21:39:26.406Z,103158.48
2019-03-28T21:44:34.328Z,103165.66
2019-03-28T21:49:42.095Z,103169.30
2019-03-28T21:54:50.718Z,103164.58
2019-03-28T21:59:58.647Z,103163.19
2019-03-28T22:05:07.072Z,103160.62
2019-03-28T22:10:17.044Z,103160.62
2019-03-28T22:15:25.264Z,103157.63
2019-03-28T22:20:33.135Z,103154.84
2019-03-28T22:25:40.945Z,103157.03
2019-03-28T22:30:48.931Z,103156.72
2019-03-28T22:35:56.754Z,103151.47
2019-03-28T22:41:05.275Z,103149.92
2019-03-28T22:46:13.075Z,103152.14
2019-03-28T22:51:21.010Z,103154.39
2019-03-28T22:56:28.942Z,103153.53
2019-03-28T23:01:37.402Z,103145.91
2019-03-28T23:06:45.465Z,103162.36
2019-03-28T23:11:53.375Z,103164.88
2019-03-28T23:17:01.268Z,103157.39
2019-03-28T23:22:09.277Z,103168.28
2019-03-28T23:27:17.270Z,103175.53
2019-03-28T23:32:25.251Z,103172.75
2019-03-28T23:37:33.179Z,103167.19
2019-03-28T23:42:41.396Z,103164.11
2019-03-28T23:47:50.325Z,103164.11
2019-03-28T23:52:58.934Z,103172.75
2019-03-28T23:58:07.074Z,103174.44
